Time;durP1;ratioP1;P1;durP2;ratioP2;P2;SDS_P1;SDS_P2;PMS_P1;PMS_P2;Temp;Humidity;BMP_temperature;BMP_pressure;BME280_temperature;BME280_humidity;BME280_pressure;Samples;Min_cycle;Max_cycle;Signal;HPM_P1;HPM_P2
2020/12/06 00:00:03;;;;;;;10.40;2.55;;;20.80;15.30;;;;;;5029786;28;20129;-66
2020/12/06 00:02:32;;;;;;;14.10;3.53;;;20.70;15.20;;;;;;5036228;28;20100;-65
2020/12/06 00:04:59;;;;;;;15.20;2.60;;;20.60;15.80;;;;;;5033365;28;20080;-65
2020/12/06 00:07:26;;;;;;;15.18;2.50;;;20.50;16.00;;;;;;5033325;28;20108;-64
2020/12/06 00:09:53;;;;;;;18.90;4.88;;;20.40;16.30;;;;;;5032555;28;20088;-64
2020/12/06 00:12:19;;;;;;;15.98;7.57;;;20.20;17.40;;;;;;5034383;28;20523;-61
2020/12/06 00:14:46;;;;;;;56.33;33.67;;;20.10;16.10;;;;;;5033911;28;20168;-65
2020/12/06 00:17:12;;;;;;;71.82;41.85;;;19.90;16.30;;;;;;5041570;28;20073;-61
2020/12/06 00:19:39;;;;;;;56.38;32.33;;;19.80;16.40;;;;;;5038085;28;20124;-64
2020/12/06 00:22:05;;;;;;;49.97;25.33;;;;;;;;;;5037633;28;20185;-62
2020/12/06 00:24:32;;;;;;;36.80;20.75;;;19.40;21.00;;;;;;5034153;28;20033;-65
2020/12/06 00:26:59;;;;;;;29.05;14.98;;;17.30;29.90;;;;;;5036210;28;20398;-62
2020/12/06 00:29:26;;;;;;;27.55;12.95;;;;;;;;;;5031719;28;20022;-62
2020/12/06 00:31:52;;;;;;;27.50;11.15;;;;;;;;;;5034307;28;20104;-63
2020/12/06 00:34:19;;;;;;;23.67;10.90;;;18.50;22.30;;;;;;5033701;28;20025;-65
2020/12/06 00:36:48;;;;;;;;;;;18.80;31.00;;;;;;5061427;28;20462;-64
2020/12/06 00:39:14;;;;;;;32.08;11.80;;;18.30;30.50;;;;;;5033248;28;19955;-64
2020/12/06 00:41:41;;;;;;;29.70;12.20;;;;;;;;;;5029147;28;20144;-62
2020/12/06 00:44:07;;;;;;;;;;;18.20;21.10;;;;;;5031863;28;20107;-63
2020/12/06 00:46:34;;;;;;;49.30;13.73;;;17.80;21.90;;;;;;5031455;28;19957;-64
2020/12/06 00:49:00;;;;;;;46.35;18.40;;;17.50;23.30;;;;;;5028433;28;20624;-64
2020/12/06 00:51:26;;;;;;;;;;;17.60;22.70;;;;;;5026270;28;20096;-67
2020/12/06 00:53:53;;;;;;;65.75;31.58;;;17.50;22.70;;;;;;5032262;28;20369;-64
2020/12/06 00:56:19;;;;;;;;;;;17.40;22.80;;;;;;5029202;28;20527;-66
2020/12/06 00:58:47;;;;;;;57.25;28.63;;;17.20;22.80;;;;;;5027218;28;19973;-66
2020/12/06 01:01:15;;;;;;;46.85;26.00;;;17.00;22.10;;;;;;5027900;28;20586;-66
2020/12/06 01:03:42;;;;;;;46.50;22.98;;;16.90;49.60;;;;;;5029085;28;20079;-65
2020/12/06 01:06:25;;;;;;;43.38;20.92;;;16.40;31.80;;;;;;5037072;28;20438;-65
2020/12/06 01:08:51;;;;;;;44.22;20.35;;;16.10;31.00;;;;;;5035755;28;20485;-67
2020/12/06 01:11:17;;;;;;;;;;;16.60;24.00;;;;;;5038034;28;20071;-66
2020/12/06 01:13:44;;;;;;;36.78;20.48;;;16.50;24.20;;;;;;5061551;28;19986;-66
2020/12/06 01:16:14;;;;;;;48.60;16.17;;;16.30;25.10;;;;;;5040232;28;20126;-65
2020/12/06 01:18:41;;;;;;;57.53;16.92;;;16.20;25.40;;;;;;5069768;28;20613;-66
2020/12/06 01:21:10;;;;;;;43.38;17.23;;;16.10;25.20;;;;;;5036046;28;20497;-66
2020/12/06 01:23:37;;;;;;;53.35;19.98;;;15.40;43.20;;;;;;5033814;28;20084;-65
2020/12/06 01:26:03;;;;;;;;;;;15.90;25.40;;;;;;5033138;28;20126;-65
2020/12/06 01:28:30;;;;;;;55.33;20.08;;;15.90;25.90;;;;;;5035001;28;19951;-64
2020/12/06 01:30:56;;;;;;;;;;;15.80;26.50;;;;;;5037068;28;20105;-66
2020/12/06 01:33:23;;;;;;;57.88;21.13;;;15.70;26.80;;;;;;5029561;28;19962;-66
2020/12/06 01:35:49;;;;;;;86.00;28.35;;;15.60;27.30;;;;;;5036960;28;20070;-63
2020/12/06 01:38:15;;;;;;;90.18;33.38;;;15.40;27.30;;;;;;5037668;28;20102;-66
2020/12/06 01:40:42;;;;;;;;;;;15.30;27.40;;;;;;5035823;28;20105;-64
2020/12/06 01:43:11;;;;;;;103.13;30.85;;;15.20;28.60;;;;;;5040406;28;20016;-67
2020/12/06 01:45:38;;;;;;;81.55;29.52;;;14.80;28.40;;;;;;5039936;28;20074;-66
2020/12/06 01:48:09;;;;;;;90.53;28.45;;;15.10;28.20;;;;;;5038116;28;20097;-65
2020/12/06 01:50:41;;;;;;;81.60;28.88;;;15.00;28.20;;;;;;5033500;28;20534;-64
2020/12/06 01:53:08;;;;;;;80.07;30.83;;;15.20;29.70;;;;;;5034445;28;20433;-64
2020/12/06 01:55:35;;;;;;;91.82;32.88;;;14.50;37.30;;;;;;5036288;28;20530;-64
2020/12/06 01:58:07;;;;;;;108.00;39.67;;;14.80;28.60;;;;;;5033517;28;20132;-65
2020/12/06 02:00:36;;;;;;;124.03;46.97;;;14.60;53.10;;;;;;5034945;28;20110;-65
2020/12/06 02:03:05;;;;;;;136.15;48.10;;;14.60;55.30;;;;;;5032997;28;20084;-64
2020/12/06 02:05:34;;;;;;;138.00;44.65;;;;;;;;;;5035438;28;20071;-64
2020/12/06 02:08:03;;;;;;;114.28;35.95;;;14.50;29.20;;;;;;5048961;28;20093;-65
2020/12/06 02:10:31;;;;;;;104.95;36.83;;;15.00;41.50;;;;;;5038266;28;20070;-66
2020/12/06 02:12:58;;;;;;;109.90;36.60;;;14.40;29.10;;;;;;5036289;28;20078;-65
2020/12/06 02:15:25;;;;;;;98.82;36.60;;;14.40;37.90;;;;;;5035870;28;20067;-65
2020/12/06 02:17:51;;;;;;;110.68;39.17;;;;;;;;;;5034253;28;20037;-66
2020/12/06 02:20:21;;;;;;;101.25;38.97;;;14.30;32.00;;;;;;5037935;28;20430;-66
2020/12/06 02:22:48;;;;;;;123.75;37.65;;;14.30;29.80;;;;;;5021750;28;20097;-63
2020/12/06 02:25:15;;;;;;;91.70;36.00;;;14.20;35.20;;;;;;5035406;28;20074;-65
2020/12/06 02:27:42;;;;;;;94.35;33.63;;;13.90;41.10;;;;;;5032423;28;20109;-65
2020/12/06 02:30:08;;;;;;;89.78;35.22;;;13.70;44.70;;;;;;5033650;28;20069;-65
2020/12/06 02:32:35;;;;;;;105.45;35.53;;;13.60;46.00;;;;;;5034854;28;20742;-67
2020/12/06 02:35:01;;;;;;;;;;;14.00;30.00;;;;;;5039357;28;20088;-66
2020/12/06 02:37:28;;;;;;;118.00;41.40;;;13.50;31.70;;;;;;5039683;28;19965;-67
2020/12/06 02:39:54;;;;;;;106.75;40.45;;;14.20;52.50;;;;;;5037657;28;20413;-66
2020/12/06 02:42:20;;;;;;;;;;;13.90;30.00;;;;;;5038415;28;20084;-66
2020/12/06 02:44:47;;;;;;;102.88;37.28;;;13.90;31.20;;;;;;5037146;28;19961;-66
2020/12/06 02:47:16;;;;;;;93.18;33.28;;;13.70;30.80;;;;;;5029920;28;20041;-65
2020/12/06 02:49:50;;;;;;;95.68;32.67;;;13.90;52.60;;;;;;5016411;28;20029;-66
2020/12/06 02:52:16;;;;;;;108.03;33.90;;;13.80;62.30;;;;;;5031518;28;20121;-67
2020/12/06 02:54:43;;;;;;;;;;;13.70;31.20;;;;;;5031926;28;20442;-67
2020/12/06 02:57:10;;;;;;;112.55;41.30;;;13.30;43.60;;;;;;5035080;28;20433;-66
2020/12/06 02:59:39;;;;;;;123.28;43.97;;;13.60;31.40;;;;;;5040386;28;20121;-67
2020/12/06 03:02:06;;;;;;;123.82;44.90;;;13.50;31.30;;;;;;5037344;28;20172;-67
2020/12/06 03:04:32;;;;;;;;;;;13.50;31.40;;;;;;5032826;28;20081;-66
2020/12/06 03:06:58;;;;;;;114.30;43.53;;;13.50;32.20;;;;;;5039164;28;19958;-66
2020/12/06 03:09:27;;;;;;;102.72;40.08;;;13.40;31.80;;;;;;5035715;28;20137;-66
2020/12/06 03:11:55;;;;;;;103.05;38.75;;;13.50;31.40;;;;;;5035305;28;20538;-66
2020/12/06 03:14:22;;;;;;;111.13;38.45;;;13.20;50.90;;;;;;5036538;28;20084;-64
2020/12/06 03:16:50;;;;;;;111.28;40.35;;;13.50;31.50;;;;;;5035454;28;20085;-66
2020/12/06 03:19:18;;;;;;;108.20;39.92;;;13.40;31.70;;;;;;5031028;28;20074;-66
2020/12/06 03:21:45;;;;;;;104.15;43.70;;;13.20;31.60;;;;;;5037470;28;20038;-66
2020/12/06 03:24:11;;;;;;;;;;;;;;;;;;5035880;28;20025;-67
2020/12/06 03:28:08;;;;;;;112.32;40.03;;;13.10;32.00;;;;;;5088538;27;20412;-69
2020/12/06 03:30:35;;;;;;;113.47;41.97;;;13.30;33.20;;;;;;5086489;28;20156;-68
2020/12/06 03:33:01;;;;;;;;;;;13.20;33.20;;;;;;5084798;28;20072;-68
2020/12/06 03:35:30;;;;;;;123.60;42.95;;;13.10;33.50;;;;;;5086161;28;20008;-68
2020/12/06 03:37:59;;;;;;;107.88;46.20;;;13.10;33.60;;;;;;5085062;28;20112;-68
2020/12/06 03:40:28;;;;;;;133.38;46.13;;;13.10;34.20;;;;;;5084713;28;20069;-68
2020/12/06 03:42:58;;;;;;;136.10;46.85;;;13.00;34.40;;;;;;5068974;28;20104;-68
2020/12/06 03:45:24;;;;;;;129.77;46.55;;;13.00;34.70;;;;;;5086421;28;20084;-68
2020/12/06 03:47:54;;;;;;;120.80;45.75;;;;;;;;;;5068256;28;20551;-67
2020/12/06 03:50:23;;;;;;;141.73;47.05;;;13.10;37.70;;;;;;5091538;28;20071;-67
2020/12/06 03:52:53;;;;;;;148.82;48.25;;;12.80;35.10;;;;;;5069596;28;20468;-67
2020/12/06 03:55:23;;;;;;;132.30;54.40;;;12.70;34.20;;;;;;5082394;28;20116;-68
2020/12/06 03:57:49;;;;;;;186.43;71.15;;;12.70;34.80;;;;;;5076525;28;20101;-68
2020/12/06 04:00:21;;;;;;;;;;;12.70;34.80;;;;;;5092105;28;20074;-68
2020/12/06 04:02:52;;;;;;;220.27;89.55;;;12.70;34.80;;;;;;5068836;28;20004;-68
2020/12/06 04:05:25;;;;;;;226.73;107.22;;;12.60;34.90;;;;;;5067917;28;20092;-68
2020/12/06 04:07:52;;;;;;;214.55;103.70;;;12.60;35.10;;;;;;5083497;28;20077;-67
2020/12/06 04:10:19;;;;;;;203.73;97.15;;;12.60;35.30;;;;;;5067247;28;20069;-69
2020/12/06 04:12:46;;;;;;;194.20;94.10;;;12.50;35.60;;;;;;5089935;28;20533;-68
2020/12/06 04:15:13;;;;;;;184.85;80.97;;;12.50;35.70;;;;;;5073627;28;20536;-68
2020/12/06 04:17:40;;;;;;;157.75;72.68;;;12.50;35.40;;;;;;5068003;28;20545;-68
2020/12/06 04:20:07;;;;;;;151.20;67.93;;;12.40;35.70;;;;;;5051688;28;20080;-68
2020/12/06 04:22:36;;;;;;;167.50;62.15;;;12.40;35.70;;;;;;5083091;28;20126;-68
2020/12/06 04:25:07;;;;;;;136.63;53.60;;;12.40;36.00;;;;;;5086019;28;20081;-68
2020/12/06 04:27:36;;;;;;;136.90;47.30;;;12.40;35.70;;;;;;5089618;28;20500;-68
2020/12/06 04:30:03;;;;;;;140.98;46.65;;;12.40;35.20;;;;;;5070333;28;20509;-68
2020/12/06 04:32:30;;;;;;;112.78;43.10;;;12.40;35.30;;;;;;5077824;28;20092;-67
2020/12/06 04:34:56;;;;;;;;;;;12.30;35.00;;;;;;5090521;28;20070;-69
2020/12/06 04:37:23;;;;;;;96.00;37.35;;;12.30;34.50;;;;;;5088881;28;19976;-70
2020/12/06 04:39:49;;;;;;;;;;;12.20;34.40;;;;;;5068806;28;20092;-69
2020/12/06 04:42:16;;;;;;;91.18;34.53;;;12.20;34.30;;;;;;5078775;28;20478;-69
2020/12/06 04:44:43;;;;;;;99.63;35.42;;;12.20;34.30;;;;;;5054220;28;20538;-69
2020/12/06 04:47:17;;;;;;;111.30;34.47;;;12.20;34.50;;;;;;5053726;28;20081;-69
2020/12/06 04:49:47;;;;;;;99.40;33.95;;;12.20;34.70;;;;;;5073649;28;20087;-69
2020/12/06 04:52:44;;;;;;;101.50;35.72;;;12.20;34.80;;;;;;5076147;28;20083;-69
2020/12/06 04:55:17;;;;;;;105.13;34.53;;;12.30;33.80;;;;;;5073124;28;20196;-68
2020/12/06 04:57:45;;;;;;;89.68;32.28;;;11.90;46.40;;;;;;5070931;28;20102;-69
2020/12/06 05:00:12;;;;;;;82.82;28.95;;;12.00;34.60;;;;;;5074372;28;20081;-67
2020/12/06 05:02:39;;;;;;;;;;;12.00;35.00;;;;;;5056137;28;20513;-67
2020/12/06 05:05:06;;;;;;;79.22;28.20;;;12.10;35.70;;;;;;5071220;28;20418;-66
2020/12/06 05:07:37;;;;;;;88.15;30.05;;;12.30;47.90;;;;;;5053377;28;20445;-66
2020/12/06 05:10:04;;;;;;;107.95;29.23;;;11.90;48.20;;;;;;5036568;28;20105;-65
2020/12/06 05:12:32;;;;;;;88.43;27.48;;;11.60;52.90;;;;;;5054752;28;20207;-65
2020/12/06 05:14:59;;;;;;;73.82;27.00;;;12.10;57.90;;;;;;5075635;28;20118;-65
2020/12/06 05:17:25;;;;;;;;;;;11.90;35.30;;;;;;5073051;28;20068;-67
2020/12/06 05:19:51;;;;;;;58.10;20.92;;;11.90;33.50;;;;;;5053329;28;20368;-67
2020/12/06 05:22:18;;;;;;;68.00;21.38;;;11.70;57.60;;;;;;5073255;28;20075;-66
2020/12/06 05:24:44;;;;;;;;;;;11.90;34.10;;;;;;5073351;28;20059;-65
2020/12/06 05:27:11;;;;;;;57.78;16.88;;;12.00;36.80;;;;;;5066098;28;20282;-67
2020/12/06 05:29:41;;;;;;;58.70;14.88;;;;;;;;;;5074365;28;20034;-68
2020/12/06 05:32:10;;;;;;;103.28;18.55;;;12.10;50.50;;;;;;5072710;28;20504;-62
2020/12/06 05:34:40;;;;;;;93.28;16.88;;;12.00;32.80;;;;;;5054150;28;20097;-66
2020/12/06 05:37:08;;;;;;;85.82;16.33;;;12.00;33.60;;;;;;5054327;28;20097;-66
2020/12/06 05:39:34;;;;;;;50.90;14.98;;;12.00;33.60;;;;;;5055058;28;20077;-67
2020/12/06 05:42:00;;;;;;;;;;;12.00;33.80;;;;;;5068143;28;20081;-68
2020/12/06 05:44:27;;;;;;;43.85;13.88;;;12.00;33.80;;;;;;5054317;28;20306;-67
2020/12/06 05:46:54;;;;;;;39.05;12.68;;;11.80;34.50;;;;;;5052048;28;20152;-68
2020/12/06 05:49:23;;;;;;;;;;;11.80;34.70;;;;;;5086716;28;20077;-67
2020/12/06 05:51:58;;;;;;;31.63;11.88;;;11.80;34.70;;;;;;5051273;28;20344;-66
2020/12/06 05:54:25;;;;;;;41.22;12.85;;;11.70;34.70;;;;;;5073244;28;20081;-67
2020/12/06 05:56:52;;;;;;;;;;;11.60;34.90;;;;;;5075205;28;20158;-68
2020/12/06 05:59:22;;;;;;;39.67;11.30;;;11.70;34.90;;;;;;5075803;28;19988;-67
2020/12/06 06:01:52;;;;;;;41.72;11.88;;;11.70;35.40;;;;;;5070627;28;20160;-67
2020/12/06 06:04:22;;;;;;;38.67;12.57;;;11.60;36.60;;;;;;5075965;28;20065;-67
2020/12/06 06:06:53;;;;;;;43.20;11.23;;;11.60;36.90;;;;;;5070231;28;20441;-67
2020/12/06 06:09:21;;;;;;;36.13;11.38;;;11.50;37.50;;;;;;5072957;28;20072;-67
2020/12/06 06:12:16;;;;;;;36.83;11.20;;;11.50;37.20;;;;;;5054849;28;20084;-66
2020/12/06 06:14:44;;;;;;;36.85;11.40;;;11.50;37.00;;;;;;5071436;28;20547;-68
2020/12/06 06:17:12;;;;;;;32.75;11.65;;;11.50;37.40;;;;;;5072026;28;20105;-67
2020/12/06 06:19:42;;;;;;;41.35;12.88;;;11.40;38.50;;;;;;5072451;28;20061;-66
2020/12/06 06:22:09;;;;;;;31.33;11.50;;;11.40;38.70;;;;;;5069801;28;20101;-66
2020/12/06 06:24:37;;;;;;;46.65;12.30;;;11.40;40.00;;;;;;5072295;28;20052;-66
2020/12/06 06:27:04;;;;;;;41.38;11.55;;;11.30;48.20;;;;;;5074868;28;20147;-66
2020/12/06 06:29:31;;;;;;;42.47;11.70;;;10.60;41.90;;;;;;5073263;28;20069;-66
2020/12/06 06:32:00;;;;;;;;;;;11.30;39.10;;;;;;5045301;28;20668;-66
2020/12/06 06:34:34;;;;;;;44.08;12.82;;;11.30;39.70;;;;;;5070445;28;19964;-66
2020/12/06 06:37:11;;;;;;;33.75;12.35;;;11.30;61.30;;;;;;5053198;28;20107;-66
2020/12/06 06:39:37;;;;;;;52.47;13.38;;;;;;;;;;5083605;28;20076;-66
2020/12/06 06:42:07;;;;;;;;;;;11.30;40.20;;;;;;5051667;28;20073;-67
2020/12/06 06:44:37;;;;;;;42.28;12.73;;;11.30;41.10;;;;;;5051794;28;20379;-67
2020/12/06 06:47:05;;;;;;;39.67;12.95;;;11.30;40.90;;;;;;5068973;28;20073;-66
2020/12/06 06:49:48;;;;;;;54.50;14.93;;;11.20;40.70;;;;;;5071256;28;20069;-67
2020/12/06 06:52:16;;;;;;;41.25;13.23;;;11.20;40.60;;;;;;5068397;28;20078;-66
2020/12/06 06:54:48;;;;;;;45.17;13.40;;;11.00;41.20;;;;;;5071091;28;20191;-67
2020/12/06 06:57:16;;;;;;;52.20;12.68;;;10.90;41.30;;;;;;5075862;28;20101;-67
2020/12/06 06:59:51;;;;;;;41.42;12.05;;;10.50;47.50;;;;;;5070058;28;20072;-67
2020/12/06 07:02:37;;;;;;;37.67;11.27;;;10.90;41.10;;;;;;5067295;28;20068;-66
2020/12/06 07:05:05;;;;;;;36.72;11.73;;;10.90;41.10;;;;;;5089220;28;20073;-66
2020/12/06 07:07:52;;;;;;;41.90;12.07;;;10.80;41.30;;;;;;5049000;28;20082;-68
2020/12/06 07:10:23;;;;;;;49.70;12.13;;;10.80;41.40;;;;;;5050475;28;20081;-68
2020/12/06 07:12:58;;;;;;;52.72;17.25;;;10.80;41.80;;;;;;5067857;28;20149;-68
2020/12/06 07:15:26;;;;;;;50.65;14.48;;;10.70;41.80;;;;;;5050582;28;20092;-68
2020/12/06 07:17:55;;;;;;;52.40;13.68;;;10.70;41.40;;;;;;5068784;28;20099;-67
2020/12/06 07:20:23;;;;;;;39.15;14.13;;;10.70;41.90;;;;;;5068172;28;20069;-68
2020/12/06 07:22:50;;;;;;;44.33;14.35;;;10.70;42.70;;;;;;5070485;28;20073;-67
2020/12/06 07:25:17;;;;;;;52.72;14.07;;;10.60;42.10;;;;;;5067528;28;20073;-67
2020/12/06 07:27:44;;;;;;;54.47;13.90;;;10.50;53.10;;;;;;5068184;28;20575;-66
2020/12/06 07:30:13;;;;;;;42.92;13.13;;;10.50;43.10;;;;;;5069756;28;20069;-66
2020/12/06 07:32:41;;;;;;;49.92;13.23;;;10.50;42.10;;;;;;5070332;28;20079;-66
2020/12/06 07:35:09;;;;;;;50.55;14.07;;;10.50;42.00;;;;;;5067726;28;20080;-66
2020/12/06 07:37:36;;;;;;;37.25;13.50;;;10.50;42.50;;;;;;5067071;28;20190;-67
2020/12/06 07:40:10;;;;;;;46.90;15.90;;;10.50;42.50;;;;;;5067181;28;20068;-66
2020/12/06 07:42:38;;;;;;;37.38;12.90;;;10.40;42.30;;;;;;5085274;28;20138;-66
2020/12/06 07:45:07;;;;;;;67.70;15.75;;;10.50;43.30;;;;;;5068562;28;20130;-67
2020/12/06 07:47:34;;;;;;;49.70;15.95;;;10.50;51.10;;;;;;5068969;28;20432;-67
2020/12/06 07:50:02;;;;;;;72.00;15.00;;;10.40;41.30;;;;;;5050370;28;20153;-67
2020/12/06 07:52:36;;;;;;;48.60;15.15;;;10.30;40.30;;;;;;5051017;28;20069;-67
2020/12/06 07:55:02;;;;;;;68.32;17.15;;;10.30;40.30;;;;;;5050523;28;20088;-67
2020/12/06 07:57:41;;;;;;;60.88;16.60;;;10.30;41.00;;;;;;5068868;28;20093;-66
2020/12/06 08:00:37;;;;;;;68.85;16.50;;;10.30;41.00;;;;;;5051372;28;20100;-67
2020/12/06 08:03:05;;;;;;;57.67;16.58;;;10.30;41.40;;;;;;5079531;28;20123;-67
2020/12/06 08:05:39;;;;;;;56.15;16.70;;;10.20;41.00;;;;;;5050312;28;20124;-67
2020/12/06 08:08:08;;;;;;;53.58;16.15;;;10.20;41.10;;;;;;5068540;28;20069;-66
2020/12/06 08:10:37;;;;;;;71.35;17.52;;;10.10;40.80;;;;;;5072388;28;20073;-66
2020/12/06 08:13:09;;;;;;;72.68;17.25;;;10.10;38.20;;;;;;5052040;28;20126;-67
2020/12/06 08:15:35;;;;;;;73.22;17.83;;;10.10;38.70;;;;;;5075324;28;20126;-67
2020/12/06 08:18:01;;;;;;;;;;;10.10;38.50;;;;;;5060011;28;20101;-66
2020/12/06 08:20:28;;;;;;;60.35;16.63;;;10.20;38.30;;;;;;5073732;28;20002;-66
2020/12/06 08:22:59;;;;;;;65.93;17.52;;;10.20;38.90;;;;;;5076451;28;20073;-66
2020/12/06 08:25:32;;;;;;;69.22;17.35;;;10.10;38.10;;;;;;5054577;28;20116;-66
2020/12/06 08:28:00;;;;;;;74.00;18.17;;;10.00;38.50;;;;;;5089881;28;20120;-66
2020/12/06 08:30:29;;;;;;;68.70;17.90;;;10.00;38.70;;;;;;5072124;28;20127;-66
2020/12/06 08:33:00;;;;;;;56.80;17.10;;;10.00;37.70;;;;;;5072585;28;20127;-66
2020/12/06 08:35:47;;;;;;;65.47;16.88;;;10.00;37.80;;;;;;5071285;28;20073;-66
2020/12/06 08:38:17;;;;;;;73.65;19.27;;;9.90;36.00;;;;;;5073931;28;20167;-66
2020/12/06 08:41:06;;;;;;;75.60;17.80;;;9.90;35.40;;;;;;5071403;28;20081;-67
2020/12/06 08:43:41;;;;;;;73.38;18.98;;;9.90;35.50;;;;;;5070622;28;20092;-68
2020/12/06 08:46:09;;;;;;;71.78;19.17;;;10.00;35.50;;;;;;5068999;28;20076;-66
2020/12/06 08:48:36;;;;;;;69.32;18.23;;;10.00;35.80;;;;;;5052579;28;20080;-66
2020/12/06 08:51:03;;;;;;;75.70;20.67;;;9.90;34.10;;;;;;5072751;28;20069;-66
2020/12/06 08:53:45;;;;;;;;;;;9.90;34.50;;;;;;5053937;28;20073;-66
2020/12/06 08:56:29;;;;;;;61.30;18.10;;;9.90;34.10;;;;;;5068889;28;20030;-67
2020/12/06 08:59:00;;;;;;;78.65;21.02;;;9.90;34.50;;;;;;5056938;28;20081;-67
2020/12/06 09:01:26;;;;;;;70.90;21.05;;;9.90;35.00;;;;;;5072107;28;20160;-67
2020/12/06 09:03:52;;;;;;;;;;;9.90;34.60;;;;;;5078435;28;20163;-66
2020/12/06 09:06:19;;;;;;;73.18;21.10;;;9.90;33.90;;;;;;5070439;28;19969;-67
2020/12/06 09:08:46;;;;;;;67.28;20.63;;;9.90;34.50;;;;;;5073525;28;20080;-65
2020/12/06 09:11:16;;;;;;;;;;;9.90;34.90;;;;;;5070677;28;20103;-67
2020/12/06 09:13:43;;;;;;;85.25;22.25;;;9.80;34.30;;;;;;5072588;28;20060;-66
2020/12/06 09:16:10;;;;;;;76.63;20.95;;;9.80;33.90;;;;;;5051667;28;20508;-66
2020/12/06 09:18:40;;;;;;;69.05;21.25;;;9.50;58.30;;;;;;5087926;28;21506;-66
2020/12/06 09:21:08;;;;;;;83.88;20.13;;;9.70;35.30;;;;;;5070317;28;20080;-66
2020/12/06 09:23:36;;;;;;;69.63;23.27;;;9.80;34.60;;;;;;5070334;28;20073;-65
2020/12/06 09:26:04;;;;;;;71.47;20.65;;;9.80;34.00;;;;;;5072259;28;20100;-66
2020/12/06 09:28:31;;;;;;;78.88;22.45;;;9.50;36.10;;;;;;5070694;28;20073;-66
2020/12/06 09:30:58;;;;;;;87.30;24.42;;;9.60;33.90;;;;;;5053288;28;20114;-66
2020/12/06 09:33:25;;;;;;;85.90;24.60;;;9.60;33.90;;;;;;5071284;28;20431;-66
2020/12/06 09:35:53;;;;;;;89.20;24.85;;;9.70;33.50;;;;;;5070131;28;20081;-66
2020/12/06 09:38:19;;;;;;;83.45;24.23;;;9.60;33.50;;;;;;5074053;28;20536;-66
2020/12/06 09:40:46;;;;;;;91.80;25.77;;;9.60;33.20;;;;;;5071477;28;20073;-66
2020/12/06 09:43:13;;;;;;;90.05;28.40;;;9.70;33.20;;;;;;5067526;28;20207;-66
2020/12/06 09:45:42;;;;;;;80.32;26.83;;;9.70;33.50;;;;;;5071297;28;20076;-66
2020/12/06 09:48:10;;;;;;;92.47;27.13;;;9.70;33.40;;;;;;5069381;28;20073;-66
2020/12/06 09:50:37;;;;;;;86.50;25.90;;;9.70;33.50;;;;;;5069074;28;20093;-66
2020/12/06 09:53:04;;;;;;;83.30;25.85;;;9.60;32.50;;;;;;5070432;28;20069;-65
2020/12/06 09:55:31;;;;;;;95.90;26.05;;;9.60;31.40;;;;;;5052577;28;20541;-66
2020/12/06 09:57:57;;;;;;;86.05;23.63;;;9.70;32.40;;;;;;5069873;28;20286;-66
2020/12/06 10:00:24;;;;;;;79.53;23.50;;;9.60;32.80;;;;;;5069978;28;20068;-66
2020/12/06 10:02:51;;;;;;;89.25;24.95;;;9.50;32.50;;;;;;5070414;28;20176;-66
2020/12/06 10:05:17;;;;;;;96.75;27.95;;;9.50;31.00;;;;;;5071676;28;20471;-66
2020/12/06 10:07:44;;;;;;;93.32;26.77;;;;;;;;;;5056962;28;20522;-65
2020/12/06 10:10:11;;;;;;;91.07;25.58;;;9.40;30.80;;;;;;5072580;28;20198;-66
2020/12/06 10:12:37;;;;;;;80.40;24.10;;;9.40;31.80;;;;;;5050947;28;20077;-66
2020/12/06 10:15:04;;;;;;;;;;;9.40;30.00;;;;;;5070056;28;20134;-66
2020/12/06 10:17:31;;;;;;;78.60;27.08;;;9.40;30.80;;;;;;5084934;28;20356;-67
2020/12/06 10:19:58;;;;;;;82.95;25.83;;;9.40;31.00;;;;;;5087538;28;20471;-66
2020/12/06 10:22:25;;;;;;;82.50;23.83;;;9.40;31.80;;;;;;5069950;28;20160;-66
2020/12/06 10:24:51;;;;;;;73.05;22.48;;;9.50;31.20;;;;;;5068032;28;20568;-66
2020/12/06 10:27:17;;;;;;;;;;;9.40;33.00;;;;;;5068010;28;20109;-66
2020/12/06 10:29:44;;;;;;;76.75;21.13;;;9.40;32.20;;;;;;5069563;28;19957;-66
2020/12/06 10:32:10;;;;;;;;;;;9.50;32.40;;;;;;5068804;28;20069;-66
2020/12/06 10:34:37;;;;;;;70.95;20.80;;;9.50;32.20;;;;;;5070110;28;19957;-65
2020/12/06 10:37:04;;;;;;;59.20;19.10;;;9.50;32.70;;;;;;5067723;28;20085;-66
2020/12/06 10:39:30;;;;;;;;;;;9.50;33.10;;;;;;5053207;28;20076;-66
2020/12/06 10:41:57;;;;;;;60.95;20.38;;;9.50;33.70;;;;;;5085094;28;19998;-66
2020/12/06 10:44:26;;;;;;;55.92;18.98;;;9.50;33.50;;;;;;5051504;28;20160;-66
2020/12/06 10:46:53;;;;;;;54.00;18.58;;;9.50;33.70;;;;;;5069334;28;20175;-67
2020/12/06 10:49:21;;;;;;;61.72;17.75;;;9.50;33.70;;;;;;5050155;28;20073;-67
2020/12/06 10:51:48;;;;;;;51.35;16.88;;;9.50;33.50;;;;;;5069789;28;20065;-67
2020/12/06 10:54:15;;;;;;;55.42;17.77;;;9.50;34.20;;;;;;5068772;28;20077;-67
2020/12/06 10:56:43;;;;;;;49.22;17.23;;;9.50;33.30;;;;;;5052891;28;20187;-66
2020/12/06 10:59:09;;;;;;;61.25;17.88;;;9.50;33.00;;;;;;5069874;28;20112;-66
2020/12/06 11:01:36;;;;;;;52.42;18.42;;;9.40;32.90;;;;;;5051121;28;20485;-66
2020/12/06 11:04:03;;;;;;;;;;;9.40;32.70;;;;;;5066377;28;20479;-67
2020/12/06 11:06:30;;;;;;;41.37;15.23;;;9.40;32.70;;;;;;5066353;28;19958;-67
2020/12/06 11:08:57;;;;;;;44.47;14.82;;;9.40;31.90;;;;;;5052998;28;20560;-66
2020/12/06 11:11:24;;;;;;;40.53;13.90;;;9.50;31.10;;;;;;5068185;28;20168;-66
2020/12/06 11:13:52;;;;;;;44.85;14.20;;;9.50;31.10;;;;;;5072570;28;20108;-66
2020/12/06 11:16:20;;;;;;;42.45;14.48;;;9.50;31.10;;;;;;5069096;28;20541;-67
2020/12/06 11:18:48;;;;;;;38.78;14.10;;;9.50;30.40;;;;;;5065582;28;20073;-67
2020/12/06 11:21:16;;;;;;;40.58;12.95;;;9.50;30.20;;;;;;5070282;28;20132;-67
2020/12/06 11:23:43;;;;;;;37.15;13.18;;;9.50;30.10;;;;;;5052464;28;20084;-66
2020/12/06 11:26:12;;;;;;;34.10;12.43;;;9.50;29.90;;;;;;5063939;28;20196;-66
2020/12/06 11:28:38;;;;;;;34.92;12.90;;;9.50;28.40;;;;;;5049194;28;20069;-66
2020/12/06 11:31:04;;;;;;;;;;;9.40;28.40;;;;;;5048901;28;20105;-66
2020/12/06 11:33:31;;;;;;;39.28;12.55;;;9.40;29.60;;;;;;5049079;28;19957;-66
2020/12/06 11:35:57;;;;;;;;;;;9.40;28.50;;;;;;5050399;28;20096;-66
2020/12/06 11:38:25;;;;;;;37.03;11.40;;;9.50;27.90;;;;;;5048924;28;19968;-66
2020/12/06 11:40:51;;;;;;;32.63;11.77;;;9.50;28.30;;;;;;5050238;28;20077;-66
2020/12/06 11:43:18;;;;;;;35.17;12.70;;;9.50;27.90;;;;;;5048211;28;20073;-65
2020/12/06 11:45:44;;;;;;;36.75;13.07;;;9.60;27.90;;;;;;5049830;28;20077;-66
2020/12/06 11:48:11;;;;;;;;;;;9.60;27.50;;;;;;5032076;28;20085;-67
2020/12/06 11:50:37;;;;;;;33.20;12.20;;;9.60;28.00;;;;;;5053275;28;19979;-66
2020/12/06 11:53:03;;;;;;;;;;;9.50;28.80;;;;;;5053485;28;20077;-66
2020/12/06 11:55:30;;;;;;;30.60;13.35;;;9.50;28.30;;;;;;5052814;28;20034;-66
2020/12/06 11:57:57;;;;;;;30.55;12.63;;;9.50;27.50;;;;;;5051620;28;20097;-66
2020/12/06 12:00:23;;;;;;;;;;;9.40;27.40;;;;;;5051976;28;20457;-66
2020/12/06 12:02:49;;;;;;;40.90;12.70;;;9.40;27.60;;;;;;5052782;28;19960;-66
2020/12/06 12:05:16;;;;;;;;;;;9.30;28.30;;;;;;5053218;28;20078;-66
2020/12/06 12:07:43;;;;;;;36.05;12.35;;;9.30;27.30;;;;;;5052070;28;20504;-67
2020/12/06 12:10:10;;;;;;;31.70;11.48;;;9.20;28.80;;;;;;5052824;28;20073;-66
2020/12/06 12:12:37;;;;;;;45.05;13.43;;;9.20;28.70;;;;;;5053510;28;20605;-66
2020/12/06 12:15:05;;;;;;;;;;;9.20;28.60;;;;;;5036257;28;20561;-66
2020/12/06 12:17:33;;;;;;;33.63;12.05;;;9.20;28.40;;;;;;5052148;28;19985;-65
2020/12/06 12:20:01;;;;;;;32.08;12.82;;;9.10;28.90;;;;;;5052012;28;20072;-66
2020/12/06 12:22:28;;;;;;;35.67;13.80;;;9.10;29.30;;;;;;5054160;28;20457;-66
2020/12/06 12:24:54;;;;;;;40.53;13.85;;;9.10;29.60;;;;;;5067622;28;20526;-66
2020/12/06 12:27:21;;;;;;;52.30;16.75;;;9.00;30.00;;;;;;5067348;28;20116;-67
2020/12/06 12:29:47;;;;;;;;;;;9.10;30.30;;;;;;5073420;28;20177;-68
2020/12/06 12:32:14;;;;;;;72.32;23.10;;;9.10;30.80;;;;;;5071990;28;19964;-65
2020/12/06 12:34:40;;;;;;;;;;;9.00;30.40;;;;;;5074950;28;20583;-66
2020/12/06 12:37:06;;;;;;;66.78;22.45;;;9.00;30.50;;;;;;5073813;28;19977;-66
2020/12/06 12:39:32;;;;;;;;;;;9.00;31.40;;;;;;5072989;28;20068;-66
2020/12/06 12:41:59;;;;;;;68.07;25.10;;;9.00;31.00;;;;;;5072568;28;20401;-66
2020/12/06 12:44:30;;;;;;;59.15;25.02;;;9.00;30.80;;;;;;5072764;28;20115;-67
2020/12/06 12:46:58;;;;;;;69.97;26.90;;;9.00;31.40;;;;;;5054538;28;20123;-66
2020/12/06 12:49:25;;;;;;;66.68;27.63;;;8.90;30.80;;;;;;5071417;28;20160;-66
2020/12/06 12:51:57;;;;;;;78.53;28.60;;;8.90;31.70;;;;;;5071221;28;21192;-66